sensor_id;sensor_type;location;lat;lon;timestamp;P1;durP1;ratioP1;P2;durP2;ratioP2
31974;SDS011;18500;43.618;1.474;2024-01-15T06:47:29;852.70;;;783.30;;
31974;SDS011;18500;43.618;1.474;2024-01-15T06:49:55;805.63;;;739.38;;
31974;SDS011;18500;43.618;1.474;2024-01-15T06:52:21;796.13;;;729.60;;
31974;SDS011;18500;43.618;1.474;2024-01-15T06:54:47;803.40;;;737.95;;
31974;SDS011;18500;43.618;1.474;2024-01-15T06:57:12;783.90;;;718.70;;
31974;SDS011;18500;43.618;1.474;2024-01-15T06:59:38;798.72;;;731.78;;
31974;SDS011;18500;43.618;1.474;2024-01-15T07:02:04;781.78;;;715.53;;
31974;SDS011;18500;43.618;1.474;2024-01-15T07:04:30;803.95;;;736.70;;
31974;SDS011;18500;43.618;1.474;2024-01-15T07:06:56;799.50;;;731.40;;
31974;SDS011;18500;43.618;1.474;2024-01-15T07:09:21;777.80;;;713.00;;
31974;SDS011;18500;43.618;1.474;2024-01-15T07:11:47;763.33;;;697.42;;
31974;SDS011;18500;43.618;1.474;2024-01-15T07:14:13;776.65;;;711.55;;
31974;SDS011;18500;43.618;1.474;2024-01-15T07:16:39;788.50;;;720.60;;
31974;SDS011;18500;43.618;1.474;2024-01-15T07:19:04;771.97;;;708.25;;
31974;SDS011;18500;43.618;1.474;2024-01-15T07:21:31;775.78;;;710.13;;
31974;SDS011;18500;43.618;1.474;2024-01-15T07:23:56;739.10;;;680.45;;
31974;SDS011;18500;43.618;1.474;2024-01-15T07:26:22;769.28;;;702.95;;
31974;SDS011;18500;43.618;1.474;2024-01-15T07:28:47;782.80;;;716.45;;
31974;SDS011;18500;43.618;1.474;2024-01-15T07:31:15;752.58;;;691.30;;
31974;SDS011;18500;43.618;1.474;2024-01-15T07:33:42;790.85;;;725.95;;
31974;SDS011;18500;43.618;1.474;2024-01-15T07:36:08;750.97;;;687.67;;
31974;SDS011;18500;43.618;1.474;2024-01-15T07:38:33;789.15;;;721.67;;
31974;SDS011;18500;43.618;1.474;2024-01-15T07:40:59;792.80;;;727.17;;
31974;SDS011;18500;43.618;1.474;2024-01-15T07:43:25;771.67;;;708.15;;
31974;SDS011;18500;43.618;1.474;2024-01-15T07:45:52;732.50;;;671.42;;
31974;SDS011;18500;43.618;1.474;2024-01-15T07:48:18;773.70;;;710.00;;
31974;SDS011;18500;43.618;1.474;2024-01-15T07:50:44;738.92;;;677.08;;
31974;SDS011;18500;43.618;1.474;2024-01-15T07:53:09;803.60;;;736.22;;
31974;SDS011;18500;43.618;1.474;2024-01-15T07:55:35;755.33;;;692.50;;
31974;SDS011;18500;43.618;1.474;2024-01-15T07:58:00;679.22;;;624.05;;
31974;SDS011;18500;43.618;1.474;2024-01-15T08:00:27;733.88;;;675.25;;
31974;SDS011;18500;43.618;1.474;2024-01-15T08:02:52;717.53;;;658.03;;
31974;SDS011;18500;43.618;1.474;2024-01-15T08:05:18;676.85;;;623.08;;
31974;SDS011;18500;43.618;1.474;2024-01-15T08:07:44;651.33;;;597.97;;
31974;SDS011;18500;43.618;1.474;2024-01-15T08:10:09;690.97;;;634.20;;
31974;SDS011;18500;43.618;1.474;2024-01-15T08:12:35;691.03;;;634.67;;
31974;SDS011;18500;43.618;1.474;2024-01-15T08:15:01;739.25;;;679.55;;
31974;SDS011;18500;43.618;1.474;2024-01-15T08:17:26;659.00;;;606.58;;
31974;SDS011;18500;43.618;1.474;2024-01-15T08:19:53;674.05;;;620.10;;
31974;SDS011;18500;43.618;1.474;2024-01-15T08:22:19;715.33;;;655.90;;
31974;SDS011;18500;43.618;1.474;2024-01-15T08:24:45;767.65;;;708.22;;
31974;SDS011;18500;43.618;1.474;2024-01-15T08:27:11;717.40;;;661.65;;
31974;SDS011;18500;43.618;1.474;2024-01-15T08:29:36;812.53;;;751.17;;
31974;SDS011;18500;43.618;1.474;2024-01-15T08:32:02;737.92;;;680.70;;
31974;SDS011;18500;43.618;1.474;2024-01-15T08:34:28;785.92;;;726.75;;
31974;SDS011;18500;43.618;1.474;2024-01-15T08:36:53;810.42;;;749.67;;
31974;SDS011;18500;43.618;1.474;2024-01-15T08:39:19;876.53;;;806.38;;
31974;SDS011;18500;43.618;1.474;2024-01-15T08:41:45;796.80;;;735.92;;
31974;SDS011;18500;43.618;1.474;2024-01-15T08:44:11;873.40;;;805.97;;
31974;SDS011;18500;43.618;1.474;2024-01-15T08:46:37;810.20;;;746.33;;
31974;SDS011;18500;43.618;1.474;2024-01-15T08:49:03;846.85;;;780.55;;
31974;SDS011;18500;43.618;1.474;2024-01-15T08:51:29;846.95;;;779.33;;
31974;SDS011;18500;43.618;1.474;2024-01-15T08:53:56;839.33;;;772.78;;
31974;SDS011;18500;43.618;1.474;2024-01-15T08:56:21;844.53;;;775.03;;
31974;SDS011;18500;43.618;1.474;2024-01-15T08:58:47;858.03;;;788.60;;
31974;SDS011;18500;43.618;1.474;2024-01-15T09:01:13;873.15;;;801.22;;
31974;SDS011;18500;43.618;1.474;2024-01-15T09:03:39;877.08;;;805.30;;
31974;SDS011;18500;43.618;1.474;2024-01-15T09:06:07;853.47;;;783.80;;
31974;SDS011;18500;43.618;1.474;2024-01-15T09:08:34;877.30;;;804.88;;
31974;SDS011;18500;43.618;1.474;2024-01-15T09:11:00;894.58;;;820.30;;
31974;SDS011;18500;43.618;1.474;2024-01-15T09:13:27;870.88;;;797.17;;
31974;SDS011;18500;43.618;1.474;2024-01-15T09:15:53;874.08;;;798.38;;
31974;SDS011;18500;43.618;1.474;2024-01-15T09:18:19;812.58;;;745.28;;
31974;SDS011;18500;43.618;1.474;2024-01-15T09:20:44;798.15;;;737.53;;
31974;SDS011;18500;43.618;1.474;2024-01-15T09:23:10;785.00;;;723.75;;
31974;SDS011;18500;43.618;1.474;2024-01-15T09:25:36;732.95;;;677.67;;
31974;SDS011;18500;43.618;1.474;2024-01-15T09:28:01;677.03;;;625.90;;
31974;SDS011;18500;43.618;1.474;2024-01-15T09:30:27;645.53;;;596.20;;
31974;SDS011;18500;43.618;1.474;2024-01-15T09:32:53;664.20;;;613.33;;
31974;SDS011;18500;43.618;1.474;2024-01-15T09:35:18;621.30;;;574.08;;
31974;SDS011;18500;43.618;1.474;2024-01-15T09:37:44;641.70;;;592.95;;
31974;SDS011;18500;43.618;1.474;2024-01-15T09:40:12;647.53;;;598.25;;
31974;SDS011;18500;43.618;1.474;2024-01-15T09:42:40;617.83;;;571.15;;
31974;SDS011;18500;43.618;1.474;2024-01-15T09:45:07;612.53;;;566.15;;
31974;SDS011;18500;43.618;1.474;2024-01-15T09:47:34;663.08;;;612.50;;
31974;SDS011;18500;43.618;1.474;2024-01-15T09:50:00;649.47;;;599.55;;
31974;SDS011;18500;43.618;1.474;2024-01-15T09:52:28;642.72;;;593.33;;
31974;SDS011;18500;43.618;1.474;2024-01-15T09:54:55;664.28;;;613.83;;
31974;SDS011;18500;43.618;1.474;2024-01-15T09:57:23;684.50;;;633.92;;
31974;SDS011;18500;43.618;1.474;2024-01-15T09:59:49;638.97;;;590.72;;
31974;SDS011;18500;43.618;1.474;2024-01-15T10:02:17;677.63;;;627.00;;
31974;SDS011;18500;43.618;1.474;2024-01-15T10:04:43;685.67;;;633.88;;
31974;SDS011;18500;43.618;1.474;2024-01-15T10:07:09;665.85;;;615.25;;
31974;SDS011;18500;43.618;1.474;2024-01-15T10:09:44;701.53;;;647.72;;
31974;SDS011;18500;43.618;1.474;2024-01-15T10:12:11;665.38;;;614.25;;
31974;SDS011;18500;43.618;1.474;2024-01-15T10:14:37;702.67;;;647.92;;
31974;SDS011;18500;43.618;1.474;2024-01-15T10:17:24;673.58;;;621.75;;
31974;SDS011;18500;43.618;1.474;2024-01-15T10:19:49;740.05;;;682.55;;
31974;SDS011;18500;43.618;1.474;2024-01-15T10:22:14;736.83;;;679.13;;
31974;SDS011;18500;43.618;1.474;2024-01-15T10:24:41;754.55;;;695.88;;
31974;SDS011;18500;43.618;1.474;2024-01-15T10:27:10;743.88;;;685.38;;
31974;SDS011;18500;43.618;1.474;2024-01-15T10:29:36;753.70;;;694.75;;
31974;SDS011;18500;43.618;1.474;2024-01-15T10:32:08;758.13;;;698.13;;
31974;SDS011;18500;43.618;1.474;2024-01-15T10:34:37;791.10;;;728.92;;
31974;SDS011;18500;43.618;1.474;2024-01-15T10:37:04;808.65;;;744.72;;
31974;SDS011;18500;43.618;1.474;2024-01-15T10:39:32;705.75;;;651.50;;
31974;SDS011;18500;43.618;1.474;2024-01-15T10:41:58;731.92;;;675.85;;
31974;SDS011;18500;43.618;1.474;2024-01-15T10:44:23;780.53;;;720.60;;
31974;SDS011;18500;43.618;1.474;2024-01-15T10:46:50;788.28;;;726.95;;
31974;SDS011;18500;43.618;1.474;2024-01-15T10:49:16;791.03;;;729.55;;
31974;SDS011;18500;43.618;1.474;2024-01-15T10:51:45;814.05;;;751.55;;
31974;SDS011;18500;43.618;1.474;2024-01-15T10:54:12;793.15;;;731.95;;
31974;SDS011;18500;43.618;1.474;2024-01-15T10:56:39;752.88;;;694.33;;
31974;SDS011;18500;43.618;1.474;2024-01-15T10:59:05;804.22;;;740.95;;
31974;SDS011;18500;43.618;1.474;2024-01-15T11:01:32;779.90;;;718.83;;
31974;SDS011;18500;43.618;1.474;2024-01-15T11:03:59;734.63;;;678.55;;
31974;SDS011;18500;43.618;1.474;2024-01-15T11:06:25;784.33;;;723.03;;
31974;SDS011;18500;43.618;1.474;2024-01-15T11:08:54;780.35;;;713.85;;
31974;SDS011;18500;43.618;1.474;2024-01-15T11:11:20;781.55;;;716.90;;
31974;SDS011;18500;43.618;1.474;2024-01-15T11:13:47;744.78;;;685.65;;
31974;SDS011;18500;43.618;1.474;2024-01-15T11:16:15;710.92;;;655.63;;
31974;SDS011;18500;43.618;1.474;2024-01-15T11:18:42;708.75;;;654.70;;
31974;SDS011;18500;43.618;1.474;2024-01-15T11:21:24;745.90;;;689.22;;
31974;SDS011;18500;43.618;1.474;2024-01-15T11:26:29;709.70;;;656.17;;
31974;SDS011;18500;43.618;1.474;2024-01-15T11:34:20;683.05;;;631.67;;
31974;SDS011;18500;43.618;1.474;2024-01-15T11:37:06;700.55;;;647.08;;
31974;SDS011;18500;43.618;1.474;2024-01-15T11:41:59;655.70;;;607.15;;
31974;SDS011;18500;43.618;1.474;2024-01-15T11:44:25;590.85;;;547.13;;
31974;SDS011;18500;43.618;1.474;2024-01-15T11:46:57;623.65;;;577.17;;
31974;SDS011;18500;43.618;1.474;2024-01-15T11:52:12;739.70;;;680.40;;
31974;SDS011;18500;43.618;1.474;2024-01-15T11:54:42;781.60;;;718.53;;
31974;SDS011;18500;43.618;1.474;2024-01-15T11:57:18;812.05;;;746.05;;
31974;SDS011;18500;43.618;1.474;2024-01-15T11:59:54;875.63;;;802.83;;
31974;SDS011;18500;43.618;1.474;2024-01-15T12:02:20;871.33;;;798.53;;
31974;SDS011;18500;43.618;1.474;2024-01-15T12:04:47;868.70;;;796.33;;
31974;SDS011;18500;43.618;1.474;2024-01-15T12:07:12;876.10;;;802.42;;
31974;SDS011;18500;43.618;1.474;2024-01-15T12:09:44;864.78;;;793.58;;
31974;SDS011;18500;43.618;1.474;2024-01-15T12:12:10;890.95;;;818.08;;
31974;SDS011;18500;43.618;1.474;2024-01-15T12:14:42;925.00;;;847.40;;
31974;SDS011;18500;43.618;1.474;2024-01-15T12:17:08;895.08;;;820.85;;
31974;SDS011;18500;43.618;1.474;2024-01-15T12:19:35;856.15;;;784.58;;
31974;SDS011;18500;43.618;1.474;2024-01-15T12:22:01;858.70;;;789.47;;
31974;SDS011;18500;43.618;1.474;2024-01-15T12:24:27;813.83;;;749.15;;
31974;SDS011;18500;43.618;1.474;2024-01-15T12:26:52;881.03;;;812.00;;
31974;SDS011;18500;43.618;1.474;2024-01-15T12:29:18;825.08;;;760.70;;
31974;SDS011;18500;43.618;1.474;2024-01-15T12:31:46;890.58;;;821.90;;
31974;SDS011;18500;43.618;1.474;2024-01-15T12:34:13;811.88;;;748.22;;
31974;SDS011;18500;43.618;1.474;2024-01-15T12:36:40;687.58;;;635.20;;
31974;SDS011;18500;43.618;1.474;2024-01-15T12:39:06;625.65;;;580.33;;
31974;SDS011;18500;43.618;1.474;2024-01-15T12:41:36;595.83;;;554.60;;
31974;SDS011;18500;43.618;1.474;2024-01-15T12:44:03;674.05;;;624.75;;
31974;SDS011;18500;43.618;1.474;2024-01-15T12:46:29;713.92;;;661.72;;
31974;SDS011;18500;43.618;1.474;2024-01-15T12:48:55;665.92;;;619.03;;
31974;SDS011;18500;43.618;1.474;2024-01-15T12:51:24;592.40;;;550.17;;
31974;SDS011;18500;43.618;1.474;2024-01-15T12:53:51;579.03;;;538.10;;
31974;SDS011;18500;43.618;1.474;2024-01-15T12:56:17;593.13;;;550.97;;
31974;SDS011;18500;43.618;1.474;2024-01-15T12:58:42;584.33;;;543.22;;
31974;SDS011;18500;43.618;1.474;2024-01-15T13:01:08;593.97;;;552.97;;
31974;SDS011;18500;43.618;1.474;2024-01-15T13:03:34;578.78;;;536.60;;
31974;SDS011;18500;43.618;1.474;2024-01-15T13:06:00;608.88;;;563.75;;
31974;SDS011;18500;43.618;1.474;2024-01-15T13:08:25;614.83;;;567.63;;
31974;SDS011;18500;43.618;1.474;2024-01-15T13:10:53;637.45;;;589.28;;
31974;SDS011;18500;43.618;1.474;2024-01-15T13:13:21;639.15;;;591.95;;
31974;SDS011;18500;43.618;1.474;2024-01-15T13:15:47;685.78;;;629.30;;
31974;SDS011;18500;43.618;1.474;2024-01-15T13:18:13;805.60;;;735.90;;
31974;SDS011;18500;43.618;1.474;2024-01-15T13:20:39;780.13;;;718.72;;
31974;SDS011;18500;43.618;1.474;2024-01-15T13:23:04;672.38;;;622.97;;
31974;SDS011;18500;43.618;1.474;2024-01-15T13:25:30;686.20;;;634.85;;
31974;SDS011;18500;43.618;1.474;2024-01-15T13:27:57;720.28;;;665.50;;
31974;SDS011;18500;43.618;1.474;2024-01-15T13:30:22;738.13;;;681.88;;
31974;SDS011;18500;43.618;1.474;2024-01-15T13:32:48;653.45;;;604.90;;
31974;SDS011;18500;43.618;1.474;2024-01-15T13:35:14;644.58;;;596.92;;
31974;SDS011;18500;43.618;1.474;2024-01-15T13:37:39;636.28;;;589.70;;
31974;SDS011;18500;43.618;1.474;2024-01-15T13:40:07;627.22;;;580.53;;
31974;SDS011;18500;43.618;1.474;2024-01-15T13:42:34;564.80;;;523.53;;
31974;SDS011;18500;43.618;1.474;2024-01-15T13:45:03;619.40;;;571.60;;
31974;SDS011;18500;43.618;1.474;2024-01-15T13:47:31;674.80;;;623.13;;
31974;SDS011;18500;43.618;1.474;2024-01-15T13:49:57;728.90;;;671.80;;
31974;SDS011;18500;43.618;1.474;2024-01-15T13:52:23;674.55;;;623.65;;
31974;SDS011;18500;43.618;1.474;2024-01-15T13:54:48;728.33;;;669.63;;
31974;SDS011;18500;43.618;1.474;2024-01-15T13:57:14;746.05;;;684.40;;
31974;SDS011;18500;43.618;1.474;2024-01-15T13:59:40;742.30;;;682.33;;
31974;SDS011;18500;43.618;1.474;2024-01-15T14:02:06;707.80;;;650.95;;
31974;SDS011;18500;43.618;1.474;2024-01-15T14:04:31;791.70;;;728.45;;
31974;SDS011;18500;43.618;1.474;2024-01-15T14:06:57;790.50;;;725.15;;
31974;SDS011;18500;43.618;1.474;2024-01-15T14:09:23;799.63;;;729.65;;
31974;SDS011;18500;43.618;1.474;2024-01-15T14:11:49;813.40;;;744.78;;
31974;SDS011;18500;43.618;1.474;2024-01-15T14:14:15;848.72;;;777.30;;
31974;SDS011;18500;43.618;1.474;2024-01-15T14:16:42;829.90;;;763.00;;
31974;SDS011;18500;43.618;1.474;2024-01-15T14:19:07;837.97;;;771.42;;
31974;SDS011;18500;43.618;1.474;2024-01-15T14:21:34;838.20;;;770.75;;
31974;SDS011;18500;43.618;1.474;2024-01-15T14:24:00;820.15;;;755.80;;
31974;SDS011;18500;43.618;1.474;2024-01-15T14:26:26;779.92;;;718.45;;
31974;SDS011;18500;43.618;1.474;2024-01-15T14:28:52;835.05;;;769.28;;
31974;SDS011;18500;43.618;1.474;2024-01-15T14:31:19;826.92;;;761.35;;
31974;SDS011;18500;43.618;1.474;2024-01-15T14:33:45;805.60;;;742.28;;
31974;SDS011;18500;43.618;1.474;2024-01-15T14:36:11;817.70;;;752.22;;
31974;SDS011;18500;43.618;1.474;2024-01-15T14:38:36;778.13;;;716.80;;
31974;SDS011;18500;43.618;1.474;2024-01-15T14:41:02;764.70;;;704.85;;
31974;SDS011;18500;43.618;1.474;2024-01-15T14:43:29;774.05;;;714.80;;
31974;SDS011;18500;43.618;1.474;2024-01-15T14:45:54;771.17;;;711.65;;
31974;SDS011;18500;43.618;1.474;2024-01-15T14:48:20;732.25;;;677.55;;
31974;SDS011;18500;43.618;1.474;2024-01-15T14:50:45;665.45;;;616.05;;
31974;SDS011;18500;43.618;1.474;2024-01-15T14:53:11;784.42;;;723.55;;
31974;SDS011;18500;43.618;1.474;2024-01-15T14:55:37;728.03;;;673.13;;
31974;SDS011;18500;43.618;1.474;2024-01-15T14:58:02;698.97;;;645.55;;
31974;SDS011;18500;43.618;1.474;2024-01-15T15:00:28;741.70;;;686.10;;
31974;SDS011;18500;43.618;1.474;2024-01-15T15:02:54;702.70;;;651.30;;
31974;SDS011;18500;43.618;1.474;2024-01-15T15:05:19;757.13;;;701.78;;
31974;SDS011;18500;43.618;1.474;2024-01-15T15:07:45;770.97;;;712.75;;
31974;SDS011;18500;43.618;1.474;2024-01-15T15:10:11;795.22;;;734.25;;
31974;SDS011;18500;43.618;1.474;2024-01-15T15:12:36;767.28;;;708.80;;
31974;SDS011;18500;43.618;1.474;2024-01-15T15:15:03;800.88;;;739.35;;
31974;SDS011;18500;43.618;1.474;2024-01-15T15:17:29;799.45;;;737.45;;
31974;SDS011;18500;43.618;1.474;2024-01-15T15:19:54;720.75;;;666.70;;
31974;SDS011;18500;43.618;1.474;2024-01-15T15:22:20;696.88;;;644.38;;
31974;SDS011;18500;43.618;1.474;2024-01-15T15:24:46;710.45;;;657.33;;
31974;SDS011;18500;43.618;1.474;2024-01-15T15:27:12;656.55;;;608.33;;
31974;SDS011;18500;43.618;1.474;2024-01-15T15:29:37;681.60;;;631.70;;
31974;SDS011;18500;43.618;1.474;2024-01-15T15:32:03;684.78;;;633.72;;
31974;SDS011;18500;43.618;1.474;2024-01-15T15:34:29;729.90;;;674.88;;
31974;SDS011;18500;43.618;1.474;2024-01-15T15:36:54;743.53;;;687.17;;
31974;SDS011;18500;43.618;1.474;2024-01-15T15:39:20;687.95;;;636.40;;
31974;SDS011;18500;43.618;1.474;2024-01-15T15:41:46;610.88;;;566.22;;
31974;SDS011;18500;43.618;1.474;2024-01-15T15:44:11;682.95;;;633.17;;
31974;SDS011;18500;43.618;1.474;2024-01-15T15:46:39;661.28;;;613.63;;
31974;SDS011;18500;43.618;1.474;2024-01-15T15:49:05;653.78;;;606.42;;
31974;SDS011;18500;43.618;1.474;2024-01-15T15:51:32;645.72;;;599.88;;
31974;SDS011;18500;43.618;1.474;2024-01-15T15:53:58;640.40;;;595.05;;
31974;SDS011;18500;43.618;1.474;2024-01-15T15:56:23;631.85;;;586.53;;
31974;SDS011;18500;43.618;1.474;2024-01-15T15:58:51;635.70;;;590.10;;
31974;SDS011;18500;43.618;1.474;2024-01-15T16:01:16;666.67;;;618.28;;
31974;SDS011;18500;43.618;1.474;2024-01-15T16:03:42;607.55;;;564.72;;
31974;SDS011;18500;43.618;1.474;2024-01-15T16:06:08;618.72;;;574.83;;
31974;SDS011;18500;43.618;1.474;2024-01-15T16:08:33;633.83;;;588.63;;
31974;SDS011;18500;43.618;1.474;2024-01-15T16:10:59;776.30;;;719.00;;
31974;SDS011;18500;43.618;1.474;2024-01-15T16:13:24;803.33;;;742.65;;
31974;SDS011;18500;43.618;1.474;2024-01-15T16:15:50;810.17;;;748.78;;
31974;SDS011;18500;43.618;1.474;2024-01-15T16:18:15;941.33;;;866.92;;
31974;SDS011;18500;43.618;1.474;2024-01-15T16:20:41;851.72;;;784.30;;
31974;SDS011;18500;43.618;1.474;2024-01-15T16:23:07;836.40;;;770.45;;
31974;SDS011;18500;43.618;1.474;2024-01-15T16:25:33;844.35;;;777.85;;
31974;SDS011;18500;43.618;1.474;2024-01-15T16:28:03;886.05;;;813.03;;
31974;SDS011;18500;43.618;1.474;2024-01-15T16:30:29;875.88;;;807.42;;
31974;SDS011;18500;43.618;1.474;2024-01-15T16:32:55;876.10;;;806.60;;
31974;SDS011;18500;43.618;1.474;2024-01-15T16:35:20;850.50;;;782.25;;
31974;SDS011;18500;43.618;1.474;2024-01-15T16:37:46;830.70;;;764.17;;
31974;SDS011;18500;43.618;1.474;2024-01-15T16:40:12;864.63;;;797.20;;
31974;SDS011;18500;43.618;1.474;2024-01-15T16:42:38;905.10;;;834.90;;
31974;SDS011;18500;43.618;1.474;2024-01-15T16:45:04;942.47;;;865.90;;
31974;SDS011;18500;43.618;1.474;2024-01-15T16:47:30;864.17;;;795.17;;
31974;SDS011;18500;43.618;1.474;2024-01-15T16:49:57;958.42;;;878.25;;
31974;SDS011;18500;43.618;1.474;2024-01-15T16:52:22;941.08;;;864.25;;
31974;SDS011;18500;43.618;1.474;2024-01-15T16:54:48;889.28;;;817.67;;
31974;SDS011;18500;43.618;1.474;2024-01-15T16:57:14;901.80;;;826.55;;
31974;SDS011;18500;43.618;1.474;2024-01-15T16:59:40;943.33;;;866.63;;
31974;SDS011;18500;43.618;1.474;2024-01-15T17:02:06;975.75;;;892.28;;
31974;SDS011;18500;43.618;1.474;2024-01-15T17:04:31;912.28;;;840.72;;
31974;SDS011;18500;43.618;1.474;2024-01-15T17:06:57;879.50;;;810.97;;
31974;SDS011;18500;43.618;1.474;2024-01-15T17:09:23;885.15;;;815.13;;
31974;SDS011;18500;43.618;1.474;2024-01-15T17:11:48;899.70;;;828.55;;
31974;SDS011;18500;43.618;1.474;2024-01-15T17:14:14;924.95;;;852.17;;
31974;SDS011;18500;43.618;1.474;2024-01-15T17:16:42;896.40;;;825.13;;
31974;SDS011;18500;43.618;1.474;2024-01-15T17:19:07;919.83;;;845.80;;
31974;SDS011;18500;43.618;1.474;2024-01-15T17:21:33;927.45;;;854.70;;
31974;SDS011;18500;43.618;1.474;2024-01-15T17:23:59;898.63;;;825.67;;
31974;SDS011;18500;43.618;1.474;2024-01-15T17:26:24;894.00;;;822.15;;
31974;SDS011;18500;43.618;1.474;2024-01-15T17:28:50;869.40;;;802.40;;
31974;SDS011;18500;43.618;1.474;2024-01-15T17:31:16;888.28;;;816.55;;
31974;SDS011;18500;43.618;1.474;2024-01-15T17:33:42;923.38;;;847.42;;
31974;SDS011;18500;43.618;1.474;2024-01-15T17:36:07;914.85;;;842.70;;
31974;SDS011;18500;43.618;1.474;2024-01-15T17:38:34;923.50;;;846.78;;
31974;SDS011;18500;43.618;1.474;2024-01-15T17:41:00;925.38;;;848.47;;
31974;SDS011;18500;43.618;1.474;2024-01-15T17:43:26;904.33;;;830.35;;
31974;SDS011;18500;43.618;1.474;2024-01-15T17:45:52;918.78;;;842.20;;
31974;SDS011;18500;43.618;1.474;2024-01-15T17:48:20;961.75;;;885.20;;
31974;SDS011;18500;43.618;1.474;2024-01-15T17:50:46;889.83;;;819.65;;
31974;SDS011;18500;43.618;1.474;2024-01-15T17:53:12;954.20;;;879.53;;
31974;SDS011;18500;43.618;1.474;2024-01-15T17:55:38;881.08;;;811.22;;
31974;SDS011;18500;43.618;1.474;2024-01-15T17:58:04;814.35;;;750.38;;
31974;SDS011;18500;43.618;1.474;2024-01-15T18:00:31;801.03;;;733.38;;
31974;SDS011;18500;43.618;1.474;2024-01-15T18:02:56;948.38;;;859.35;;
31974;SDS011;18500;43.618;1.474;2024-01-15T18:05:22;795.03;;;725.55;;
31974;SDS011;18500;43.618;1.474;2024-01-15T18:07:48;776.47;;;711.50;;
31974;SDS011;18500;43.618;1.474;2024-01-15T18:10:13;732.28;;;671.33;;
31974;SDS011;18500;43.618;1.474;2024-01-15T18:12:39;584.25;;;542.90;;
31974;SDS011;18500;43.618;1.474;2024-01-15T18:15:05;582.83;;;541.50;;
31974;SDS011;18500;43.618;1.474;2024-01-15T18:17:31;599.00;;;556.58;;
31974;SDS011;18500;43.618;1.474;2024-01-15T18:20:00;567.40;;;526.90;;
31974;SDS011;18500;43.618;1.474;2024-01-15T18:22:28;631.92;;;586.63;;
31974;SDS011;18500;43.618;1.474;2024-01-15T18:24:54;575.85;;;534.42;;
31974;SDS011;18500;43.618;1.474;2024-01-15T18:27:21;594.50;;;552.55;;
31974;SDS011;18500;43.618;1.474;2024-01-15T18:29:47;574.50;;;533.90;;
31974;SDS011;18500;43.618;1.474;2024-01-15T18:32:12;570.35;;;529.55;;
31974;SDS011;18500;43.618;1.474;2024-01-15T18:34:38;647.85;;;602.17;;
31974;SDS011;18500;43.618;1.474;2024-01-15T18:37:06;656.40;;;609.30;;
31974;SDS011;18500;43.618;1.474;2024-01-15T18:39:31;583.25;;;541.85;;
31974;SDS011;18500;43.618;1.474;2024-01-15T18:41:57;629.92;;;584.85;;
31974;SDS011;18500;43.618;1.474;2024-01-15T18:44:23;615.58;;;572.65;;
31974;SDS011;18500;43.618;1.474;2024-01-15T18:46:48;622.45;;;576.72;;
31974;SDS011;18500;43.618;1.474;2024-01-15T18:49:14;683.78;;;631.30;;
31974;SDS011;18500;43.618;1.474;2024-01-15T18:51:41;710.35;;;657.78;;
31974;SDS011;18500;43.618;1.474;2024-01-15T18:54:07;794.42;;;730.40;;
31974;SDS011;18500;43.618;1.474;2024-01-15T18:56:32;761.15;;;697.55;;
31974;SDS011;18500;43.618;1.474;2024-01-15T18:59:00;762.85;;;701.70;;
31974;SDS011;18500;43.618;1.474;2024-01-15T19:01:26;738.83;;;681.15;;
31974;SDS011;18500;43.618;1.474;2024-01-15T19:03:53;769.10;;;709.35;;
31974;SDS011;18500;43.618;1.474;2024-01-15T19:06:18;857.13;;;788.50;;
31974;SDS011;18500;43.618;1.474;2024-01-15T19:08:44;894.40;;;820.78;;
31974;SDS011;18500;43.618;1.474;2024-01-15T19:11:10;913.55;;;840.25;;
31974;SDS011;18500;43.618;1.474;2024-01-15T19:13:36;912.85;;;838.03;;
31974;SDS011;18500;43.618;1.474;2024-01-15T19:16:02;929.08;;;852.22;;
31974;SDS011;18500;43.618;1.474;2024-01-15T19:18:29;948.20;;;870.25;;
31974;SDS011;18500;43.618;1.474;2024-01-15T19:20:54;832.00;;;768.75;;
31974;SDS011;18500;43.618;1.474;2024-01-15T19:23:20;862.88;;;793.97;;
31974;SDS011;18500;43.618;1.474;2024-01-15T19:25:46;832.58;;;766.55;;
31974;SDS011;18500;43.618;1.474;2024-01-15T19:28:12;789.03;;;729.40;;
31974;SDS011;18500;43.618;1.474;2024-01-15T19:30:38;754.22;;;694.45;;
31974;SDS011;18500;43.618;1.474;2024-01-15T19:33:05;776.10;;;716.35;;
31974;SDS011;18500;43.618;1.474;2024-01-15T19:35:30;806.33;;;743.60;;
31974;SDS011;18500;43.618;1.474;2024-01-15T19:37:56;800.72;;;738.85;;
31974;SDS011;18500;43.618;1.474;2024-01-15T19:40:22;756.75;;;698.65;;
31974;SDS011;18500;43.618;1.474;2024-01-15T19:42:48;763.55;;;704.70;;
31974;SDS011;18500;43.618;1.474;2024-01-15T19:45:14;758.88;;;700.60;;
31974;SDS011;18500;43.618;1.474;2024-01-15T19:47:40;846.60;;;780.28;;
31974;SDS011;18500;43.618;1.474;2024-01-15T19:50:06;778.78;;;717.78;;
31974;SDS011;18500;43.618;1.474;2024-01-15T19:52:33;815.95;;;751.80;;
31974;SDS011;18500;43.618;1.474;2024-01-15T19:54:58;834.60;;;768.78;;
31974;SDS011;18500;43.618;1.474;2024-01-15T19:57:24;784.17;;;724.42;;
31974;SDS011;18500;43.618;1.474;2024-01-15T19:59:50;817.28;;;753.50;;
31974;SDS011;18500;43.618;1.474;2024-01-15T20:02:18;812.42;;;749.83;;
31974;SDS011;18500;43.618;1.474;2024-01-15T20:04:44;807.72;;;746.85;;
31974;SDS011;18500;43.618;1.474;2024-01-15T20:07:10;820.47;;;757.28;;
31974;SDS011;18500;43.618;1.474;2024-01-15T20:09:36;772.67;;;714.13;;
31974;SDS011;18500;43.618;1.474;2024-01-15T20:12:02;753.65;;;694.92;;
31974;SDS011;18500;43.618;1.474;2024-01-15T20:14:28;745.38;;;684.78;;
31974;SDS011;18500;43.618;1.474;2024-01-15T20:16:55;782.50;;;720.05;;
31974;SDS011;18500;43.618;1.474;2024-01-15T20:19:21;755.10;;;692.38;;
31974;SDS011;18500;43.618;1.474;2024-01-15T20:21:47;780.30;;;716.05;;
31974;SDS011;18500;43.618;1.474;2024-01-15T20:24:13;793.13;;;728.47;;
31974;SDS011;18500;43.618;1.474;2024-01-15T20:26:39;780.13;;;715.00;;
31974;SDS011;18500;43.618;1.474;2024-01-15T20:29:05;789.35;;;725.72;;
31974;SDS011;18500;43.618;1.474;2024-01-15T20:31:31;803.80;;;738.35;;
31974;SDS011;18500;43.618;1.474;2024-01-15T20:33:56;752.30;;;691.55;;
31974;SDS011;18500;43.618;1.474;2024-01-15T20:36:22;766.00;;;702.17;;
31974;SDS011;18500;43.618;1.474;2024-01-15T20:38:47;764.85;;;700.35;;
31974;SDS011;18500;43.618;1.474;2024-01-15T20:41:13;733.10;;;673.85;;
31974;SDS011;18500;43.618;1.474;2024-01-15T20:43:41;730.30;;;669.03;;
31974;SDS011;18500;43.618;1.474;2024-01-15T20:46:06;825.33;;;743.92;;
31974;SDS011;18500;43.618;1.474;2024-01-15T20:48:32;773.50;;;704.08;;
31974;SDS011;18500;43.618;1.474;2024-01-15T20:50:58;776.70;;;713.78;;